createdAt,value
2022-11-27T00:00:31.654Z,98406.06
2022-11-27T00:02:40.453Z,98400.06
2022-11-27T00:04:43.437Z,98406.97
2022-11-27T00:06:46.100Z,98413.81
2022-11-27T00:08:49.573Z,98403.41
2022-11-27T00:10:52.646Z,98405.06
2022-11-27T00:12:55.270Z,98398.22
2022-11-27T00:14:57.871Z,98392.19
2022-11-27T00:17:01.014Z,98391.38
2022-11-27T00:19:05.280Z,98395.63
2022-11-27T00:21:09.196Z,98399.00
2022-11-27T00:23:11.996Z,98398.06
2022-11-27T00:25:14.723Z,98395.47
2022-11-27T00:27:17.322Z,98388.63
2022-11-27T00:29:19.891Z,98384.25
2022-11-27T00:31:23.776Z,98379.97
2022-11-27T00:33:26.501Z,98385.88
2022-11-27T00:35:30.403Z,98384.13
2022-11-27T00:37:33.330Z,98379.84
2022-11-27T00:39:35.961Z,98372.16
2022-11-27T00:41:39.000Z,98373.91
2022-11-27T00:43:45.612Z,98376.50
2022-11-27T00:45:50.088Z,98366.25
2022-11-27T00:47:52.711Z,98364.41
2022-11-27T00:49:55.302Z,98364.34
2022-11-27T00:51:59.213Z,98353.09
2022-11-27T00:54:02.267Z,98347.88
2022-11-27T00:56:05.500Z,98347.09
2022-11-27T00:58:08.123Z,98340.81
2022-11-27T01:00:12.042Z,98334.84
2022-11-27T01:02:14.723Z,98330.56
2022-11-27T01:04:17.603Z,98322.78
2022-11-27T01:06:23.155Z,98318.38
2022-11-27T01:08:27.142Z,98317.47
2022-11-27T01:10:29.821Z,98307.19
2022-11-27T01:12:32.479Z,98305.50
2022-11-27T01:14:35.359Z,98306.41
2022-11-27T01:16:42.590Z,98302.00
2022-11-27T01:18:47.892Z,98307.16
2022-11-27T01:20:53.506Z,98302.03
2022-11-27T01:22:56.118Z,98296.13
2022-11-27T01:25:00.129Z,98293.53
2022-11-27T01:27:02.738Z,98290.97
2022-11-27T01:29:05.376Z,98291.81
2022-11-27T01:31:09.661Z,98289.25
2022-11-27T01:33:12.662Z,98285.78
2022-11-27T01:35:15.384Z,98274.63
2022-11-27T01:37:18.081Z,98272.94
2022-11-27T01:39:24.058Z,98277.28
2022-11-27T01:41:31.083Z,98274.72
2022-11-27T01:43:39.286Z,98275.63
2022-11-27T01:45:42.203Z,98279.09
2022-11-27T01:47:49.121Z,98278.19
2022-11-27T01:49:55.293Z,98269.63
2022-11-27T01:52:03.311Z,98272.25
2022-11-27T01:54:06.300Z,98268.84
2022-11-27T01:56:09.616Z,98264.50
2022-11-27T01:58:16.069Z,98266.25
2022-11-27T02:02:23.512Z,98266.16
2022-11-27T02:04:26.162Z,98267.94
2022-11-27T02:06:29.312Z,98259.38
2022-11-27T02:08:32.294Z,98264.50
2022-11-27T02:10:44.313Z,98264.44
2022-11-27T02:12:55.708Z,98265.22
2022-11-27T02:15:09.831Z,98264.41
2022-11-27T02:17:18.167Z,98265.22
2022-11-27T02:19:35.456Z,98254.88
2022-11-27T02:21:45.526Z,98264.19
2022-11-27T02:24:32.375Z,98256.50
2022-11-27T02:27:25.829Z,98256.56
2022-11-27T02:29:32.443Z,98256.59
2022-11-27T02:31:41.717Z,98250.66
2022-11-27T02:33:50.539Z,98246.38
2022-11-27T02:35:59.883Z,98248.06
2022-11-27T02:38:09.630Z,98245.38
2022-11-27T02:40:16.588Z,98249.63
2022-11-27T02:42:21.949Z,98245.28
2022-11-27T02:44:26.867Z,98256.28
2022-11-27T02:46:31.070Z,98253.69
2022-11-27T02:48:38.456Z,98256.28
2022-11-27T02:50:44.610Z,98252.06
2022-11-27T02:52:50.023Z,98256.38
2022-11-27T02:54:56.461Z,98250.44
2022-11-27T02:57:01.845Z,98250.53
2022-11-27T02:59:08.850Z,98248.84
2022-11-27T03:01:13.270Z,98242.03
2022-11-27T03:03:20.757Z,98242.06
2022-11-27T03:05:27.214Z,98243.78
2022-11-27T03:07:38.404Z,98234.38
2022-11-27T03:09:45.031Z,98228.44
2022-11-27T03:11:49.230Z,98233.66
2022-11-27T03:13:55.808Z,98231.94
2022-11-27T03:16:10.164Z,98233.72
2022-11-27T03:18:23.048Z,98234.34
2022-11-27T03:20:28.874Z,98224.06
2022-11-27T03:22:31.722Z,98232.53
2022-11-27T03:24:36.393Z,98227.38
2022-11-27T03:26:40.200Z,98224.84
2022-11-27T03:28:46.542Z,98219.72
2022-11-27T03:30:49.487Z,98217.22
2022-11-27T03:32:52.462Z,98212.94
2022-11-27T03:34:57.102Z,98218.06
2022-11-27T03:36:59.759Z,98208.47
2022-11-27T03:39:02.803Z,98215.31
2022-11-27T03:41:12.968Z,98210.19
2022-11-27T03:43:22.752Z,98217.97
2022-11-27T03:45:33.088Z,98214.50
2022-11-27T03:47:47.521Z,98219.66
2022-11-27T03:50:06.897Z,98218.75
2022-11-27T03:52:14.769Z,98214.50
2022-11-27T03:54:26.704Z,98208.50
2022-11-27T03:56:37.327Z,98223.97
2022-11-27T03:58:44.537Z,98219.66
2022-11-27T04:00:49.883Z,98216.25
2022-11-27T04:02:54.579Z,98212.84
2022-11-27T04:04:57.150Z,98208.50
2022-11-27T04:07:01.163Z,98218.81
2022-11-27T04:09:04.426Z,98218.81
2022-11-27T04:11:07.279Z,98220.56
2022-11-27T04:13:09.877Z,98206.66
2022-11-27T04:15:12.922Z,98207.50
2022-11-27T04:17:15.540Z,98203.22
2022-11-27T04:19:18.127Z,98208.34
2022-11-27T04:21:20.792Z,98207.44
2022-11-27T04:23:24.826Z,98208.19
2022-11-27T04:25:27.954Z,98197.91
2022-11-27T04:27:30.577Z,98201.47
2022-11-27T04:29:33.283Z,98193.63
2022-11-27T04:31:35.936Z,98195.31
2022-11-27T04:33:38.745Z,98190.97
2022-11-27T04:35:41.415Z,98190.03
2022-11-27T04:37:44.011Z,98182.44
2022-11-27T04:39:47.980Z,98184.91
2022-11-27T04:41:50.921Z,98177.16
2022-11-27T04:43:53.539Z,98174.59
2022-11-27T04:45:56.201Z,98180.59
2022-11-27T04:47:58.770Z,98172.03
2022-11-27T04:50:01.551Z,98175.47
2022-11-27T04:52:04.630Z,98161.75
2022-11-27T04:54:07.380Z,98163.53
2022-11-27T04:56:13.577Z,98160.22
2022-11-27T04:58:16.171Z,98169.56
2022-11-27T05:00:19.980Z,98166.88
2022-11-27T05:02:22.690Z,98165.22
2022-11-27T05:04:25.487Z,98168.63
2022-11-27T05:06:28.193Z,98166.66
2022-11-27T05:08:32.881Z,98155.53
2022-11-27T05:10:35.533Z,98154.75
2022-11-27T05:12:39.547Z,98153.81
2022-11-27T05:14:42.394Z,98157.16
2022-11-27T05:16:47.290Z,98149.47
2022-11-27T05:18:49.858Z,98151.22
2022-11-27T05:20:57.250Z,98151.25
2022-11-27T05:22:59.826Z,98149.63
2022-11-27T05:25:02.510Z,98147.91
2022-11-27T05:27:05.439Z,98152.97
2022-11-27T05:29:11.038Z,98148.63
2022-11-27T05:31:13.719Z,98153.69
2022-11-27T05:33:17.887Z,98146.81
2022-11-27T05:35:20.484Z,98144.28
2022-11-27T05:37:23.141Z,98151.38
2022-11-27T05:39:25.976Z,98157.56
2022-11-27T05:41:28.977Z,98158.63
2022-11-27T05:43:31.576Z,98165.59
2022-11-27T05:45:35.557Z,98162.25
2022-11-27T05:47:38.157Z,98155.31
2022-11-27T05:49:40.744Z,98157.81
2022-11-27T05:51:49.391Z,98162.03
2022-11-27T05:53:53.540Z,98158.56
2022-11-27T05:55:56.582Z,98164.53
2022-11-27T05:57:59.225Z,98169.66
2022-11-27T06:00:02.361Z,98175.53
2022-11-27T06:02:06.401Z,98174.72
2022-11-27T06:04:09.052Z,98172.19
2022-11-27T06:06:14.917Z,98181.72
2022-11-27T06:08:17.599Z,98177.19
2022-11-27T06:10:20.248Z,98171.25
2022-11-27T06:12:22.889Z,98181.53
2022-11-27T06:14:25.631Z,98177.34
2022-11-27T06:16:28.320Z,98182.59
2022-11-27T06:18:32.374Z,98177.41
2022-11-27T06:20:38.451Z,98176.63
2022-11-27T06:22:43.739Z,98178.31
2022-11-27T06:24:46.397Z,98176.63
2022-11-27T06:26:49.088Z,98178.41
2022-11-27T06:28:52.257Z,98179.34
2022-11-27T06:30:54.869Z,98181.78
2022-11-27T06:32:57.644Z,98182.72
2022-11-27T06:35:01.659Z,98186.09
2022-11-27T06:37:05.415Z,98189.50
2022-11-27T06:39:12.234Z,98191.25
2022-11-27T06:41:17.011Z,98184.44
2022-11-27T06:43:19.605Z,98184.44
2022-11-27T06:45:22.274Z,98181.84
2022-11-27T06:47:25.061Z,98178.22
2022-11-27T06:49:27.711Z,98166.25
2022-11-27T06:51:33.564Z,98165.28
2022-11-27T06:53:38.140Z,98165.38
2022-11-27T06:55:40.786Z,98167.09
2022-11-27T06:57:43.377Z,98172.16
2022-11-27T06:59:46.006Z,98162.78
2022-11-27T07:01:48.839Z,98165.22
2022-11-27T07:03:51.762Z,98155.66
2022-11-27T07:05:54.540Z,98145.38
2022-11-27T07:07:59.671Z,98148.84
2022-11-27T07:10:02.374Z,98147.09
2022-11-27T07:12:06.143Z,98148.00
2022-11-27T07:14:08.775Z,98144.63
2022-11-27T07:16:12.862Z,98139.47
2022-11-27T07:18:15.546Z,98137.81
2022-11-27T07:20:18.286Z,98136.13
2022-11-27T07:22:20.874Z,98136.22
2022-11-27T07:24:24.832Z,98141.34
2022-11-27T07:26:29.275Z,98139.69
2022-11-27T07:28:31.905Z,98128.50
2022-11-27T07:30:34.565Z,98131.97
2022-11-27T07:32:37.192Z,98137.94
2022-11-27T07:34:40.088Z,98129.47
2022-11-27T07:36:43.114Z,98126.13
2022-11-27T07:38:46.527Z,98123.50
2022-11-27T07:40:50.483Z,98120.03
2022-11-27T07:42:54.387Z,98119.22
2022-11-27T07:44:57.137Z,98113.28
2022-11-27T07:46:59.894Z,98111.59
2022-11-27T07:49:02.508Z,98112.47
2022-11-27T07:51:06.802Z,98100.50
2022-11-27T07:53:09.400Z,98099.72
2022-11-27T07:55:12.040Z,98081.75
2022-11-27T07:57:16.174Z,98089.47
2022-11-27T07:59:18.775Z,98081.88
2022-11-27T08:01:22.174Z,98075.97
2022-11-27T08:03:25.251Z,98080.34
2022-11-27T08:05:27.990Z,98076.91
2022-11-27T08:07:31.421Z,98076.09
2022-11-27T08:09:34.165Z,98071.81
2022-11-27T08:11:36.820Z,98072.69
2022-11-27T08:13:40.808Z,98075.34
2022-11-27T08:15:43.602Z,98065.06
2022-11-27T08:17:46.308Z,98061.66
2022-11-27T08:19:48.949Z,98067.63
2022-11-27T08:21:51.745Z,98068.53
2022-11-27T08:23:54.749Z,98061.53
2022-11-27T08:25:57.354Z,98074.38
2022-11-27T08:27:59.948Z,98066.75
2022-11-27T08:30:04.402Z,98068.44
2022-11-27T08:32:07.443Z,98076.25
2022-11-27T08:34:10.127Z,98084.66
2022-11-27T08:36:17.814Z,98082.25
2022-11-27T08:38:21.608Z,98079.66
2022-11-27T08:40:24.242Z,98073.72
2022-11-27T08:42:26.988Z,98066.00
2022-11-27T08:44:29.620Z,98066.03
2022-11-27T08:46:33.547Z,98074.59
2022-11-27T08:48:36.516Z,98072.06
2022-11-27T08:50:39.108Z,98072.06
2022-11-27T08:52:41.737Z,98062.69
2022-11-27T08:54:44.361Z,98056.00
2022-11-27T08:56:47.005Z,98044.88
2022-11-27T08:58:49.664Z,98057.69
2022-11-27T09:00:52.407Z,98044.00
2022-11-27T09:02:56.422Z,98050.84
2022-11-27T09:04:59.007Z,98041.44
2022-11-27T09:07:01.602Z,98045.72
2022-11-27T09:09:06.859Z,98036.31
2022-11-27T09:11:11.132Z,98041.44
2022-11-27T09:13:13.779Z,98048.31
2022-11-27T09:15:17.584Z,98051.81
2022-11-27T09:17:20.193Z,98047.53
2022-11-27T09:19:24.546Z,98034.75
2022-11-27T09:21:30.278Z,98030.59
2022-11-27T09:23:33.154Z,98034.84
2022-11-27T09:25:35.793Z,98039.88
2022-11-27T09:27:38.885Z,98042.56
2022-11-27T09:29:41.499Z,98037.44
2022-11-27T09:31:44.286Z,98028.84
2022-11-27T09:33:47.145Z,98024.72
2022-11-27T09:35:51.191Z,98025.56
2022-11-27T09:37:53.889Z,98033.28
2022-11-27T09:39:56.573Z,98029.03
2022-11-27T09:42:00.694Z,98029.03
2022-11-27T09:44:07.510Z,98027.34
2022-11-27T09:46:17.812Z,98028.22
2022-11-27T09:48:27.289Z,98034.31
2022-11-27T09:50:32.951Z,98026.53
2022-11-27T09:52:40.953Z,98029.97
2022-11-27T09:54:52.350Z,98022.25
2022-11-27T09:56:56.099Z,98021.38
2022-11-27T09:59:00.537Z,98014.59
2022-11-27T10:01:09.961Z,98005.19
2022-11-27T10:03:14.911Z,97993.19
2022-11-27T10:05:21.711Z,97993.25
2022-11-27T10:07:34.928Z,97991.56
2022-11-27T10:09:50.963Z,97982.97
2022-11-27T10:12:02.859Z,97988.94
2022-11-27T10:14:22.463Z,97976.09
2022-11-27T10:16:31.972Z,97964.91
2022-11-27T10:18:41.643Z,97954.63
2022-11-27T10:20:49.726Z,97956.38
2022-11-27T10:22:59.574Z,97953.75
2022-11-27T10:25:16.937Z,97953.78
2022-11-27T10:27:26.694Z,97951.25
2022-11-27T10:29:37.535Z,97937.50
2022-11-27T10:31:48.065Z,97947.84
2022-11-27T10:33:54.479Z,97943.53
2022-11-27T10:35:57.702Z,97947.84
2022-11-27T10:38:06.966Z,97941.78
2022-11-27T10:40:22.209Z,97943.53
2022-11-27T10:42:29.767Z,97945.28
2022-11-27T10:44:36.387Z,97940.13
2022-11-27T10:46:40.934Z,97945.28
2022-11-27T10:48:46.380Z,97949.63
2022-11-27T10:50:49.040Z,97943.59
2022-11-27T10:52:56.742Z,97934.13
2022-11-27T10:55:03.788Z,97921.25
2022-11-27T10:57:30.926Z,97911.81
2022-11-27T10:59:36.710Z,97897.22
2022-11-27T11:01:44.609Z,97891.19
2022-11-27T11:03:47.722Z,97889.47
2022-11-27T11:06:19.517Z,97892.06
2022-11-27T11:08:21.792Z,97887.75
2022-11-27T11:10:28.951Z,97893.78
2022-11-27T11:12:33.215Z,97880.03
2022-11-27T11:14:35.875Z,97875.72
2022-11-27T11:16:43.540Z,97879.19
2022-11-27T11:18:49.070Z,97868.84
2022-11-27T11:20:54.717Z,97863.69
2022-11-27T11:22:59.338Z,97857.66
2022-11-27T11:25:02.815Z,97855.94
2022-11-27T11:27:08.148Z,97850.78
2022-11-27T11:29:26.696Z,97854.19
2022-11-27T11:31:33.568Z,97852.50
2022-11-27T11:33:48.421Z,97851.63
2022-11-27T11:35:54.456Z,97844.75
2022-11-27T11:37:58.808Z,97830.94
2022-11-27T11:40:04.223Z,97829.22
2022-11-27T11:42:11.411Z,97822.31
2022-11-27T11:44:24.243Z,97810.22
2022-11-27T11:46:30.007Z,97799.03
2022-11-27T11:48:32.767Z,97805.00
2022-11-27T11:50:41.997Z,97796.34
2022-11-27T11:52:59.165Z,97793.78
2022-11-27T11:55:07.790Z,97802.34
2022-11-27T11:57:28.338Z,97789.44
2022-11-27T11:59:42.139Z,97788.53
2022-11-27T12:02:06.016Z,97782.44
2022-11-27T12:04:24.838Z,97771.25
2022-11-27T12:06:37.558Z,97768.66
2022-11-27T12:08:55.442Z,97760.88
2022-11-27T12:11:07.985Z,97768.59
2022-11-27T12:13:23.655Z,97757.38
2022-11-27T12:15:33.227Z,97759.91
2022-11-27T12:17:53.146Z,97753.88
2022-11-27T12:20:15.306Z,97752.09
2022-11-27T12:22:27.291Z,97746.84
2022-11-27T12:24:42.197Z,97744.22
2022-11-27T12:26:59.135Z,97747.59
2022-11-27T12:29:25.059Z,97743.28
2022-11-27T12:31:56.300Z,97735.47
2022-11-27T12:34:03.342Z,97737.97
2022-11-27T12:36:17.130Z,97737.94
2022-11-27T12:38:42.613Z,97740.50
2022-11-27T12:41:00.351Z,97738.78
2022-11-27T12:43:16.739Z,97730.13
2022-11-27T12:45:23.425Z,97724.03
2022-11-27T12:47:38.669Z,97722.28
2022-11-27T12:49:45.710Z,97714.53
2022-11-27T12:51:52.303Z,97711.91
2022-11-27T12:54:00.413Z,97706.66
2022-11-27T12:56:15.895Z,97708.38
2022-11-27T12:58:27.050Z,97709.19
2022-11-27T13:00:32.235Z,97711.75
2022-11-27T13:02:41.890Z,97717.75
2022-11-27T13:04:49.593Z,97711.66
2022-11-27T13:06:59.531Z,97708.13
2022-11-27T13:09:06.826Z,97698.56
2022-11-27T13:11:14.250Z,97707.16
2022-11-27T13:13:23.138Z,97700.19
2022-11-27T13:15:28.882Z,97698.38
2022-11-27T13:17:38.145Z,97699.16
2022-11-27T13:19:45.002Z,97689.59
2022-11-27T13:21:49.188Z,97696.41
2022-11-27T13:23:52.548Z,97691.22
2022-11-27T13:25:57.763Z,97682.56
2022-11-27T13:28:03.129Z,97678.28
2022-11-27T13:30:08.707Z,97677.41
2022-11-27T13:32:21.141Z,97671.34
2022-11-27T13:34:28.953Z,97668.72
2022-11-27T13:36:39.056Z,97667.84
2022-11-27T13:38:45.137Z,97663.59
2022-11-27T13:40:50.786Z,97670.47
2022-11-27T13:42:56.759Z,97672.16
2022-11-27T13:45:01.778Z,97669.56
2022-11-27T13:47:10.325Z,97665.06
2022-11-27T13:49:24.615Z,97655.47
2022-11-27T13:51:31.320Z,97659.03
2022-11-27T13:53:37.053Z,97664.97
2022-11-27T13:55:41.686Z,97656.44
2022-11-27T13:57:53.285Z,97657.28
2022-11-27T13:59:59.516Z,97664.28
2022-11-27T14:02:05.153Z,97663.47
2022-11-27T14:04:10.061Z,97654.88
2022-11-27T14:06:19.308Z,97654.94
2022-11-27T14:08:27.262Z,97653.13
2022-11-27T14:10:33.303Z,97666.09
2022-11-27T14:12:37.452Z,97660.06
2022-11-27T14:14:43.078Z,97655.84
2022-11-27T14:16:55.933Z,97652.25
2022-11-27T14:19:01.102Z,97652.38
2022-11-27T14:21:05.429Z,97657.66
2022-11-27T14:23:12.884Z,97654.19
2022-11-27T14:25:21.981Z,97647.31
2022-11-27T14:27:27.804Z,97643.75
2022-11-27T14:29:31.605Z,97641.94
2022-11-27T14:31:36.564Z,97637.69
2022-11-27T14:34:07.516Z,97640.31
2022-11-27T14:36:08.598Z,97637.72
2022-11-27T14:38:12.346Z,97634.31
2022-11-27T14:40:16.341Z,97629.97
2022-11-27T14:42:28.127Z,97629.19
2022-11-27T14:44:32.204Z,97620.66
2022-11-27T14:46:37.167Z,97620.66
2022-11-27T14:48:45.207Z,97612.91
2022-11-27T14:50:49.205Z,97603.44
2022-11-27T14:52:54.838Z,97600.88
2022-11-27T14:54:58.727Z,97595.75
2022-11-27T14:57:01.506Z,97590.59
2022-11-27T14:59:06.712Z,97588.88
2022-11-27T15:01:09.431Z,97582.03
2022-11-27T15:03:12.424Z,97575.97
2022-11-27T15:05:21.592Z,97568.28
2022-11-27T15:07:29.281Z,97566.53
2022-11-27T15:09:35.137Z,97557.94
2022-11-27T15:11:55.241Z,97558.78
2022-11-27T15:14:02.054Z,97548.41
2022-11-27T15:16:15.043Z,97544.16
2022-11-27T15:18:23.762Z,97548.47
2022-11-27T15:20:29.775Z,97550.22
2022-11-27T15:22:33.529Z,97549.38
2022-11-27T15:24:37.785Z,97550.28
2022-11-27T15:26:40.965Z,97552.88
2022-11-27T15:28:44.446Z,97545.84
2022-11-27T15:30:47.232Z,97539.88
2022-11-27T15:32:52.962Z,97544.16
2022-11-27T15:34:55.906Z,97535.31
2022-11-27T15:36:59.705Z,97529.34
2022-11-27T15:39:16.013Z,97533.69
2022-11-27T15:41:26.620Z,97525.09
2022-11-27T15:43:29.330Z,97524.94
2022-11-27T15:45:33.761Z,97525.44
2022-11-27T15:47:38.547Z,97526.41
2022-11-27T15:49:42.922Z,97531.34
2022-11-27T15:51:45.628Z,97523.53
2022-11-27T15:53:48.630Z,97532.31
2022-11-27T15:55:51.258Z,97528.09
2022-11-27T15:57:53.861Z,97525.34
2022-11-27T15:59:56.457Z,97524.69
2022-11-27T16:01:59.126Z,97527.53
2022-11-27T16:04:01.780Z,97527.56
2022-11-27T16:06:07.481Z,97528.28
2022-11-27T16:08:11.705Z,97521.28
2022-11-27T16:10:14.535Z,97521.38
2022-11-27T16:12:17.184Z,97527.59
2022-11-27T16:14:19.797Z,97535.22
2022-11-27T16:16:22.872Z,97530.28
2022-11-27T16:18:25.477Z,97543.25
2022-11-27T16:20:28.335Z,97539.78
2022-11-27T16:22:32.350Z,97543.28
2022-11-27T16:24:35.005Z,97539.84
2022-11-27T16:26:38.029Z,97540.91
2022-11-27T16:28:40.827Z,97541.84
2022-11-27T16:30:43.437Z,97538.47
2022-11-27T16:32:46.055Z,97539.31
2022-11-27T16:34:51.029Z,97535.88
2022-11-27T16:36:53.596Z,97540.31
2022-11-27T16:38:57.715Z,97531.53
2022-11-27T16:41:01.821Z,97524.50
2022-11-27T16:43:05.335Z,97523.72
2022-11-27T16:45:09.217Z,97519.44
2022-11-27T16:47:11.984Z,97516.66
2022-11-27T16:49:14.658Z,97517.63
2022-11-27T16:51:19.020Z,97507.25
2022-11-27T16:53:21.611Z,97503.88
2022-11-27T16:55:26.193Z,97500.63
2022-11-27T16:57:28.787Z,97505.69
2022-11-27T16:59:31.569Z,97503.97
2022-11-27T17:01:36.149Z,97493.66
2022-11-27T17:03:38.947Z,97479.22
2022-11-27T17:05:41.645Z,97481.69
2022-11-27T17:07:44.392Z,97471.13
2022-11-27T17:09:47.198Z,97467.00
2022-11-27T17:11:52.275Z,97464.50
2022-11-27T17:13:58.439Z,97460.91
2022-11-27T17:16:02.443Z,97449.44
2022-11-27T17:18:05.180Z,97444.47
2022-11-27T17:20:09.664Z,97436.75
2022-11-27T17:22:12.625Z,97431.53
2022-11-27T17:24:16.933Z,97426.41
2022-11-27T17:26:22.716Z,97420.56
2022-11-27T17:28:27.814Z,97418.69
2022-11-27T17:30:39.016Z,97420.44
2022-11-27T17:32:42.039Z,97413.53
2022-11-27T17:34:45.255Z,97403.16
2022-11-27T17:36:53.395Z,97407.47
2022-11-27T17:38:56.095Z,97410.00
2022-11-27T17:41:01.467Z,97412.53
2022-11-27T17:43:04.078Z,97414.81
2022-11-27T17:45:09.166Z,97407.28
2022-11-27T17:47:11.787Z,97406.59
2022-11-27T17:49:14.480Z,97393.59
2022-11-27T17:51:17.863Z,97384.16
2022-11-27T17:53:20.744Z,97387.41
2022-11-27T17:55:23.380Z,97386.50
2022-11-27T17:57:26.044Z,97386.56
2022-11-27T17:59:31.298Z,97394.19
2022-11-27T18:01:35.288Z,97392.56
2022-11-27T18:03:38.003Z,97386.66
2022-11-27T18:05:40.849Z,97392.91
2022-11-27T18:07:43.579Z,97378.28
2022-11-27T18:09:47.616Z,97371.44
2022-11-27T18:11:50.273Z,97362.84
2022-11-27T18:13:52.890Z,97374.03
2022-11-27T18:15:55.450Z,97368.88
2022-11-27T18:17:59.448Z,97368.88
2022-11-27T18:20:03.539Z,97371.44
2022-11-27T18:22:08.198Z,97376.59
2022-11-27T18:24:26.125Z,97366.19
2022-11-27T18:26:52.648Z,97365.34
2022-11-27T18:28:55.625Z,97362.78
2022-11-27T18:30:58.214Z,97361.88
2022-11-27T18:33:03.500Z,97358.44
2022-11-27T18:35:07.409Z,97355.00
2022-11-27T18:37:10.824Z,97353.28
2022-11-27T18:39:13.784Z,97347.25
2022-11-27T18:41:18.747Z,97349.81
2022-11-27T18:43:21.766Z,97344.69
2022-11-27T18:45:33.425Z,97345.56
2022-11-27T18:47:38.398Z,97345.53
2022-11-27T18:49:42.990Z,97340.34
2022-11-27T18:51:45.987Z,97342.94
2022-11-27T18:53:49.192Z,97341.22
2022-11-27T18:55:52.958Z,97349.94
2022-11-27T18:57:55.694Z,97346.47
2022-11-27T18:59:58.329Z,97343.00
2022-11-27T19:02:01.210Z,97349.75
2022-11-27T19:04:04.587Z,97345.34
2022-11-27T19:06:10.862Z,97329.88
2022-11-27T19:08:13.646Z,97329.72
2022-11-27T19:10:16.484Z,97323.56
2022-11-27T19:12:19.544Z,97324.88
2022-11-27T19:14:22.123Z,97325.16
2022-11-27T19:16:26.315Z,97318.03
2022-11-27T19:18:29.006Z,97307.03
2022-11-27T19:20:33.055Z,97295.78
2022-11-27T19:22:38.697Z,97289.59
2022-11-27T19:24:41.456Z,97280.25
2022-11-27T19:26:44.131Z,97287.19
2022-11-27T19:28:49.883Z,97285.41
2022-11-27T19:30:52.577Z,97285.53
2022-11-27T19:32:55.287Z,97279.50
2022-11-27T19:34:58.681Z,97280.38
2022-11-27T19:37:02.593Z,97276.97
2022-11-27T19:39:09.117Z,97273.53
2022-11-27T19:41:13.034Z,97263.16
2022-11-27T19:43:15.656Z,97255.41
2022-11-27T19:45:18.492Z,97250.25
2022-11-27T19:47:21.104Z,97251.94
2022-11-27T19:49:23.742Z,97248.53
2022-11-27T19:51:27.644Z,97246.81
2022-11-27T19:53:30.234Z,97246.81
2022-11-27T19:55:34.762Z,97237.34
2022-11-27T19:57:38.332Z,97238.28
2022-11-27T19:59:41.643Z,97233.16
2022-11-27T20:01:45.309Z,97241.81
2022-11-27T20:03:48.142Z,97245.25
2022-11-27T20:05:53.388Z,97240.13
2022-11-27T20:07:59.542Z,97236.69
2022-11-27T20:10:02.288Z,97235.00
2022-11-27T20:12:06.892Z,97231.56
2022-11-27T20:14:09.595Z,97236.72
2022-11-27T20:16:14.676Z,97247.94
2022-11-27T20:18:17.307Z,97245.38
2022-11-27T20:20:21.529Z,97241.94
2022-11-27T20:22:24.242Z,97237.47
2022-11-27T20:24:27.014Z,97232.28
2022-11-27T20:26:30.506Z,97234.88
2022-11-27T20:28:35.888Z,97232.22
2022-11-27T20:30:41.143Z,97238.38
2022-11-27T20:32:43.992Z,97242.63
2022-11-27T20:34:46.834Z,97239.09
2022-11-27T20:36:49.817Z,97230.44
2022-11-27T20:38:53.874Z,97222.72
2022-11-27T20:40:56.561Z,97213.22
2022-11-27T20:42:59.587Z,97212.38
2022-11-27T20:45:05.159Z,97207.25
2022-11-27T20:47:07.801Z,97214.88
2022-11-27T20:49:10.470Z,97223.59
2022-11-27T20:51:14.898Z,97216.75
2022-11-27T20:53:17.608Z,97211.59
2022-11-27T20:55:20.286Z,97208.81
2022-11-27T20:57:22.924Z,97201.16
2022-11-27T20:59:25.505Z,97202.94
2022-11-27T21:01:31.805Z,97198.69
2022-11-27T21:03:34.783Z,97207.31
2022-11-27T21:05:37.456Z,97197.91
2022-11-27T21:07:41.354Z,97192.78
2022-11-27T21:09:44.207Z,97196.16
2022-11-27T21:11:48.074Z,97187.53
2022-11-27T21:13:50.706Z,97185.78
2022-11-27T21:15:54.385Z,97186.69
2022-11-27T21:17:58.342Z,97178.06
2022-11-27T21:20:01.535Z,97180.63
2022-11-27T21:22:04.200Z,97187.53
2022-11-27T21:24:08.121Z,97178.88
2022-11-27T21:26:11.744Z,97178.06
2022-11-27T21:28:14.447Z,97177.19
2022-11-27T21:30:19.088Z,97162.50
2022-11-27T21:32:22.735Z,97158.19
2022-11-27T21:34:26.989Z,97166.81
2022-11-27T21:36:31.690Z,97164.22
2022-11-27T21:38:34.322Z,97164.25
2022-11-27T21:40:37.734Z,97172.00
2022-11-27T21:42:44.391Z,97172.94
2022-11-27T21:44:47.453Z,97165.22
2022-11-27T21:46:51.552Z,97173.88
2022-11-27T21:48:56.580Z,97171.34
2022-11-27T21:51:02.751Z,97169.66
2022-11-27T21:53:05.395Z,97166.25
2022-11-27T21:55:12.046Z,97171.44
2022-11-27T21:57:14.987Z,97175.81
2022-11-27T21:59:17.577Z,97162.91
2022-11-27T22:01:21.956Z,97166.34
2022-11-27T22:03:24.901Z,97162.03
2022-11-27T22:05:27.655Z,97157.69
2022-11-27T22:07:31.715Z,97155.13
2022-11-27T22:09:34.642Z,97151.75
2022-11-27T22:11:37.712Z,97154.34
2022-11-27T22:13:41.150Z,97146.59
2022-11-27T22:15:43.768Z,97146.59
2022-11-27T22:17:46.380Z,97148.34
2022-11-27T22:19:49.022Z,97152.63
2022-11-27T22:21:51.666Z,97146.63
2022-11-27T22:23:55.691Z,97153.47
2022-11-27T22:26:01.263Z,97149.13
2022-11-27T22:28:04.027Z,97150.00
2022-11-27T22:30:08.057Z,97150.00
2022-11-27T22:32:10.680Z,97148.31
2022-11-27T22:34:13.267Z,97152.59
2022-11-27T22:36:17.578Z,97163.78
2022-11-27T22:38:20.834Z,97155.16
2022-11-27T22:40:24.773Z,97144.91
2022-11-27T22:42:27.434Z,97143.16
2022-11-27T22:44:30.190Z,97128.56
2022-11-27T22:46:35.482Z,97131.13
2022-11-27T22:48:38.402Z,97130.28
2022-11-27T22:50:41.128Z,97122.47
2022-11-27T22:52:43.758Z,97112.13
2022-11-27T22:54:46.381Z,97104.34
2022-11-27T22:56:50.321Z,97093.94
2022-11-27T22:59:11.380Z,97074.97
2022-11-27T23:01:18.001Z,97080.13
2022-11-27T23:03:20.619Z,97091.53
2022-11-27T23:05:23.280Z,97094.03
2022-11-27T23:07:25.946Z,97080.31
2022-11-27T23:09:28.649Z,97082.88
2022-11-27T23:11:31.687Z,97082.88
2022-11-27T23:13:35.960Z,97083.75
2022-11-27T23:15:38.581Z,97068.28
2022-11-27T23:17:41.161Z,97055.31
2022-11-27T23:19:43.757Z,97051.84
2022-11-27T23:21:46.387Z,97060.44
2022-11-27T23:23:49.265Z,97050.13
2022-11-27T23:25:51.901Z,97055.41
2022-11-27T23:27:54.497Z,97041.63
2022-11-27T23:29:58.719Z,97033.00
2022-11-27T23:32:01.563Z,97039.88
2022-11-27T23:34:07.217Z,97036.47
2022-11-27T23:36:11.228Z,97038.16
2022-11-27T23:38:13.876Z,97032.03
2022-11-27T23:40:16.610Z,97022.56
2022-11-27T23:42:19.191Z,97022.59
2022-11-27T23:44:21.911Z,97030.34
2022-11-27T23:46:28.728Z,97017.44
2022-11-27T23:48:31.345Z,97008.78
2022-11-27T23:50:33.971Z,97009.66
2022-11-27T23:52:36.633Z,97007.94
2022-11-27T23:54:39.430Z,97006.19
2022-11-27T23:56:43.054Z,97020.03
2022-11-27T23:58:47.581Z,97009.66
